Dream Angel — 3EEV — position and weather

sailwx.info

Track history (hours):
 
Tides and Currents Weather Stations Pressure Air Temp Water Temp Dewpoint Dewpoint Depression Visibility Wind Speed Wind Dir Waves Ship Positions

Dream Angel

Last reported at 2018-Jan-28 12:27 UTC. Time now 2018-Feb-20 09:56 UTC.
Position S 18°25' E 178°15'.
Warning: this ship's position is 22 days out of date.

Length 187 m; draft 7 m.

Type: Cargo ship. MMSI: 371820000.

Date/timePositionNaut miles runAvg speedWind from/ knotsBaromVisibWave heightAir tempDewpointWater temp
2018-Jan-28 12:27S 18°25' E 178°15'715.7
2018-Jan-28 12:00S 18°18' E 178°19'713.4
2018-Jan-28 11:30S 18°13' E 178°22'4 9.1
2018-Jan-28 11:00S 18°08' E 178°24'1 2.8
2018-Jan-28 10:29S 18°08' E 178°25'0 0.0
2018-Jan-28 09:59S 18°08' E 178°25'0 0.0
2018-Jan-28 09:29S 18°08' E 178°25'0 0.0
2018-Jan-28 08:59S 18°08' E 178°25'9 0.5
2018-Jan-27 15:31S 18°11' E 178°34'0 0.0
2018-Jan-27 15:28S 18°11' E 178°34'0 0.0
2018-Jan-27 03:49S 18°11' E 178°34'0 0.0
2018-Jan-27 03:25S 18°11' E 178°34'0 0.0
2018-Jan-27 02:58S 18°11' E 178°34'0 0.0
2018-Jan-27 02:25S 18°11' E 178°34'0 0.0
2018-Jan-27 01:55S 18°11' E 178°34'0 0.0
2018-Jan-27 01:28S 18°11' E 178°34'0 0.1
2018-Jan-27 00:58S 18°11' E 178°34'0 0.0
2018-Jan-27 00:28S 18°11' E 178°34'0 0.0
2018-Jan-26 23:58S 18°11' E 178°34'0 0.0
2018-Jan-26 23:28S 18°11' E 178°34'0 0.0
2018-Jan-26 22:55S 18°11' E 178°34'0 0.1
2018-Jan-26 22:28S 18°11' E 178°34'0 0.1
2018-Jan-26 21:49S 18°11' E 178°34'0 0.1
2018-Jan-26 21:25S 18°11' E 178°34'0 0.0
2018-Jan-26 20:55S 18°11' E 178°34'0 0.0
2018-Jan-26 20:16S 18°11' E 178°34'0 0.0
2018-Jan-26 19:37S 18°11' E 178°34'0 0.0
2018-Jan-26 19:25S 18°11' E 178°34'0 0.0
2018-Jan-26 18:46S 18°11' E 178°34'0 0.0
2018-Jan-26 18:28S 18°11' E 178°34'0 0.1
2018-Jan-26 17:55S 18°11' E 178°34'0 0.0
2018-Jan-26 17:25S 18°11' E 178°34'0 0.0
2018-Jan-26 16:43S 18°11' E 178°34'0 0.0
2018-Jan-26 16:28S 18°11' E 178°34'0 0.0
2018-Jan-26 15:58S 18°11' E 178°34'0 0.0
2018-Jan-26 15:28S 18°11' E 178°34'0 0.0
2018-Jan-26 14:58S 18°11' E 178°34'0 0.0
2018-Jan-26 14:28S 18°11' E 178°34'0 0.1
2018-Jan-26 13:58S 18°11' E 178°34'0 0.0
2018-Jan-26 13:28S 18°11' E 178°34'  
2018-Jan-22 10:13S 35°57' E 175°18'314.2
2018-Jan-22 10:00S 35°60' E 175°17'713.8
2018-Jan-22 09:31S 36°06' E 175°14'611.5
2018-Jan-22 09:01S 36°11' E 175°11'5 9.9
2018-Jan-22 08:28S 36°16' E 175°09'10 9.8
2018-Jan-22 07:30S 36°25' E 175°04'510.0
2018-Jan-22 07:01S 36°30' E 175°02'510.2
2018-Jan-22 06:31S 36°34' E 174°59'510.4
2018-Jan-22 06:00S 36°39' E 174°56'5 9.6
2018-Jan-22 05:30S 36°43' E 174°52'4 8.2
2018-Jan-22 05:00S 36°46' E 174°49'4 8.1
2018-Jan-22 04:30S 36°50' E 174°50'3 5.9
2018-Jan-22 04:01S 36°50' E 174°46'0 0.0
2018-Jan-22 03:24S 36°50' E 174°46'0 0.0
2018-Jan-22 03:00S 36°50' E 174°46'0 0.0
2018-Jan-22 02:30S 36°50' E 174°46'0 0.0
2018-Jan-22 02:00S 36°50' E 174°46'0 0.0
2018-Jan-22 01:30S 36°50' E 174°46'0 0.0
2018-Jan-22 01:00S 36°50' E 174°46'0 0.0
2018-Jan-22 00:30S 36°50' E 174°46'0 0.0
2018-Jan-22 00:00S 36°50' E 174°46'0 0.0
2018-Jan-21 23:30S 36°50' E 174°46'0 0.0
2018-Jan-21 23:00S 36°50' E 174°46'0 0.0
2018-Jan-21 22:30S 36°50' E 174°46'0 0.0
2018-Jan-21 22:00S 36°50' E 174°46'0 0.0
2018-Jan-21 21:30S 36°50' E 174°46'0 0.0
2018-Jan-21 21:00S 36°50' E 174°46'0 0.0
2018-Jan-21 20:30S 36°50' E 174°46'0 0.0
2018-Jan-21 20:00S 36°50' E 174°46'0 0.0
2018-Jan-21 19:30S 36°50' E 174°46'0 0.0
2018-Jan-21 19:00S 36°50' E 174°46'0 0.0
2018-Jan-21 18:30S 36°50' E 174°46'0 0.0
2018-Jan-21 18:00S 36°50' E 174°46'0 0.0
2018-Jan-21 17:30S 36°50' E 174°46'0 0.1
2018-Jan-21 17:00S 36°50' E 174°46'3 5.4
2018-Jan-21 16:30S 36°50' E 174°50'510.9
2018-Jan-21 16:00S 36°44' E 174°50'4 7.2
2018-Jan-21 15:30S 36°42' E 174°53'3 5.3
2018-Jan-21 15:00S 36°39' E 174°55'3 5.2
2018-Jan-21 14:30S 36°37' E 174°57'3 5.7
2018-Jan-21 14:00S 36°35' E 174°59'3 6.0
2018-Jan-21 13:30S 36°32' E 175°01'3 6.1
2018-Jan-21 13:00S 36°30' E 175°02'4 7.6
2018-Jan-21 12:30S 36°26' E 175°03'5 9.2
2018-Jan-21 12:00S 36°22' E 175°01'4 8.0
2018-Jan-21 11:30S 36°18' E 174°58'713.2
2018-Jan-21 10:59S 36°11' E 174°56'  
Track history (hours):
 
Tides and Currents Weather Stations Pressure Air Temp Water Temp Dewpoint Dewpoint Depression Visibility Wind Speed Wind Dir Waves Ship Positions

Dream Angel

Last reported at 2018-Jan-28 12:27 UTC. Time now 2018-Feb-20 09:56 UTC.
Position S 18°25' E 178°15'.
Warning: this ship's position is 22 days out of date.

Length 187 m; draft 7 m.

Type: Cargo ship. MMSI: 371820000.

Date/timePositionNaut miles runAvg speedWind from/ knotsBaromVisibWave heightAir tempDewpointWater temp
2018-Jan-28 12:27S 18°25' E 178°15'715.7
2018-Jan-28 12:00S 18°18' E 178°19'713.4
2018-Jan-28 11:30S 18°13' E 178°22'4 9.1
2018-Jan-28 11:00S 18°08' E 178°24'1 2.8
2018-Jan-28 10:29S 18°08' E 178°25'0 0.0
2018-Jan-28 09:59S 18°08' E 178°25'0 0.0
2018-Jan-28 09:29S 18°08' E 178°25'0 0.0
2018-Jan-28 08:59S 18°08' E 178°25'9 0.5
2018-Jan-27 15:31S 18°11' E 178°34'0 0.0
2018-Jan-27 15:28S 18°11' E 178°34'0 0.0
2018-Jan-27 03:49S 18°11' E 178°34'0 0.0
2018-Jan-27 03:25S 18°11' E 178°34'0 0.0
2018-Jan-27 02:58S 18°11' E 178°34'0 0.0
2018-Jan-27 02:25S 18°11' E 178°34'0 0.0
2018-Jan-27 01:55S 18°11' E 178°34'0 0.0
2018-Jan-27 01:28S 18°11' E 178°34'0 0.1
2018-Jan-27 00:58S 18°11' E 178°34'0 0.0
2018-Jan-27 00:28S 18°11' E 178°34'0 0.0
2018-Jan-26 23:58S 18°11' E 178°34'0 0.0
2018-Jan-26 23:28S 18°11' E 178°34'0 0.0
2018-Jan-26 22:55S 18°11' E 178°34'0 0.1
2018-Jan-26 22:28S 18°11' E 178°34'0 0.1
2018-Jan-26 21:49S 18°11' E 178°34'0 0.1
2018-Jan-26 21:25S 18°11' E 178°34'0 0.0
2018-Jan-26 20:55S 18°11' E 178°34'0 0.0
2018-Jan-26 20:16S 18°11' E 178°34'0 0.0
2018-Jan-26 19:37S 18°11' E 178°34'0 0.0
2018-Jan-26 19:25S 18°11' E 178°34'0 0.0
2018-Jan-26 18:46S 18°11' E 178°34'0 0.0
2018-Jan-26 18:28S 18°11' E 178°34'0 0.1
2018-Jan-26 17:55S 18°11' E 178°34'0 0.0
2018-Jan-26 17:25S 18°11' E 178°34'0 0.0
2018-Jan-26 16:43S 18°11' E 178°34'0 0.0
2018-Jan-26 16:28S 18°11' E 178°34'0 0.0
2018-Jan-26 15:58S 18°11' E 178°34'0 0.0
2018-Jan-26 15:28S 18°11' E 178°34'0 0.0
2018-Jan-26 14:58S 18°11' E 178°34'0 0.0
2018-Jan-26 14:28S 18°11' E 178°34'0 0.1
2018-Jan-26 13:58S 18°11' E 178°34'0 0.0
2018-Jan-26 13:28S 18°11' E 178°34'  
2018-Jan-22 10:13S 35°57' E 175°18'314.2
2018-Jan-22 10:00S 35°60' E 175°17'713.8
2018-Jan-22 09:31S 36°06' E 175°14'611.5
2018-Jan-22 09:01S 36°11' E 175°11'5 9.9
2018-Jan-22 08:28S 36°16' E 175°09'10 9.8
2018-Jan-22 07:30S 36°25' E 175°04'510.0
2018-Jan-22 07:01S 36°30' E 175°02'510.2
2018-Jan-22 06:31S 36°34' E 174°59'510.4
2018-Jan-22 06:00S 36°39' E 174°56'5 9.6
2018-Jan-22 05:30S 36°43' E 174°52'4 8.2
2018-Jan-22 05:00S 36°46' E 174°49'4 8.1
2018-Jan-22 04:30S 36°50' E 174°50'3 5.9
2018-Jan-22 04:01S 36°50' E 174°46'0 0.0
2018-Jan-22 03:24S 36°50' E 174°46'0 0.0
2018-Jan-22 03:00S 36°50' E 174°46'0 0.0
2018-Jan-22 02:30S 36°50' E 174°46'0 0.0
2018-Jan-22 02:00S 36°50' E 174°46'0 0.0
2018-Jan-22 01:30S 36°50' E 174°46'0 0.0
2018-Jan-22 01:00S 36°50' E 174°46'0 0.0
2018-Jan-22 00:30S 36°50' E 174°46'0 0.0
2018-Jan-22 00:00S 36°50' E 174°46'0 0.0
2018-Jan-21 23:30S 36°50' E 174°46'0 0.0
2018-Jan-21 23:00S 36°50' E 174°46'0 0.0
2018-Jan-21 22:30S 36°50' E 174°46'0 0.0
2018-Jan-21 22:00S 36°50' E 174°46'0 0.0
2018-Jan-21 21:30S 36°50' E 174°46'0 0.0
2018-Jan-21 21:00S 36°50' E 174°46'0 0.0
2018-Jan-21 20:30S 36°50' E 174°46'0 0.0
2018-Jan-21 20:00S 36°50' E 174°46'0 0.0
2018-Jan-21 19:30S 36°50' E 174°46'0 0.0
2018-Jan-21 19:00S 36°50' E 174°46'0 0.0
2018-Jan-21 18:30S 36°50' E 174°46'0 0.0
2018-Jan-21 18:00S 36°50' E 174°46'0 0.0
2018-Jan-21 17:30S 36°50' E 174°46'0 0.1
2018-Jan-21 17:00S 36°50' E 174°46'3 5.4
2018-Jan-21 16:30S 36°50' E 174°50'510.9
2018-Jan-21 16:00S 36°44' E 174°50'4 7.2
2018-Jan-21 15:30S 36°42' E 174°53'3 5.3
2018-Jan-21 15:00S 36°39' E 174°55'3 5.2
2018-Jan-21 14:30S 36°37' E 174°57'3 5.7
2018-Jan-21 14:00S 36°35' E 174°59'3 6.0
2018-Jan-21 13:30S 36°32' E 175°01'3 6.1
2018-Jan-21 13:00S 36°30' E 175°02'4 7.6
2018-Jan-21 12:30S 36°26' E 175°03'5 9.2
2018-Jan-21 12:00S 36°22' E 175°01'4 8.0
2018-Jan-21 11:30S 36°18' E 174°58'713.2
2018-Jan-21 10:59S 36°11' E 174°56'  

Dump ship's entire track history